Time;durP1;ratioP1;P1;durP2;ratioP2;P2;SDS_P1;SDS_P2;PMS_P1;PMS_P2;Temp;Humidity;BMP_temperature;BMP_pressure;BME280_temperature;BME280_humidity;BME280_pressure;Samples;Min_cycle;Max_cycle;Signal;HPM_P1;HPM_P2
2021/11/25 00:01:42;;;;;;;18.57;11.70;;;;;;;1.81;88.11;96289.19;5092249;28;20481;-68
2021/11/25 00:04:07;;;;;;;17.80;12.10;;;;;;;1.52;88.52;96287.47;5091634;28;20398;-68
2021/11/25 00:06:33;;;;;;;18.73;11.98;;;;;;;1.65;89.08;96285.03;5091775;28;20496;-68
2021/11/25 00:08:58;;;;;;;18.50;11.97;;;;;;;1.74;87.46;96285.72;5092052;28;20851;-68
2021/11/25 00:11:25;;;;;;;19.00;12.13;;;;;;;1.64;88.42;96276.50;5091422;28;20444;-68
2021/11/25 00:13:51;;;;;;;16.43;11.70;;;;;;;1.80;87.66;96280.63;5091755;28;20479;-68
2021/11/25 00:16:16;;;;;;;17.13;11.60;;;;;;;1.51;88.27;96278.94;5091574;28;20914;-68
2021/11/25 00:18:42;;;;;;;17.67;12.20;;;;;;;1.50;88.78;96276.56;5091562;28;20401;-68
2021/11/25 00:21:09;;;;;;;15.63;11.37;;;;;;;1.49;89.04;96275.75;5091710;28;20381;-68
2021/11/25 00:23:35;;;;;;;17.42;11.65;;;;;;;1.83;88.28;96267.34;5091465;28;20485;-68
2021/11/25 00:26:01;;;;;;;18.70;11.90;;;;;;;1.83;87.49;96266.53;5091411;28;20393;-68
2021/11/25 00:28:26;;;;;;;16.27;11.70;;;;;;;1.81;87.78;96268.50;5091488;28;20484;-68
2021/11/25 00:30:52;;;;;;;19.83;12.77;;;;;;;1.87;87.44;96258.25;5090405;28;20393;-68
2021/11/25 00:33:17;;;;;;;16.65;11.60;;;;;;;1.66;87.63;96255.66;5091591;28;20916;-68
2021/11/25 00:35:42;;;;;;;16.93;11.80;;;;;;;1.70;88.56;96256.06;5091572;28;20390;-68
2021/11/25 00:38:08;;;;;;;17.53;12.17;;;;;;;1.76;87.86;96255.34;5091820;28;20475;-68
2021/11/25 00:40:33;;;;;;;17.90;12.18;;;;;;;1.88;87.94;96249.50;5073093;28;20382;-68
2021/11/25 00:42:59;;;;;;;17.93;12.07;;;;;;;1.68;88.15;96246.72;5091319;28;20390;-68
2021/11/25 00:45:24;;;;;;;17.97;12.03;;;;;;;1.73;88.00;96251.34;5091520;28;20390;-68
2021/11/25 00:47:50;;;;;;;16.25;11.23;;;;;;;1.88;87.45;96246.13;5091233;28;20482;-68
2021/11/25 00:50:18;;;;;;;17.15;11.65;;;;;;;1.89;87.32;96239.97;5073818;28;20862;-68
2021/11/25 00:52:44;;;;;;;17.15;11.50;;;;;;;1.77;88.06;96246.63;5091201;28;20435;-68
2021/11/25 00:55:09;;;;;;;16.70;11.52;;;;;;;1.84;87.21;96247.50;5091308;28;20400;-68
2021/11/25 00:57:35;;;;;;;19.85;12.35;;;;;;;1.75;87.89;96248.56;5091416;28;20985;-68
2021/11/25 01:00:01;;;;;;;18.05;12.18;;;;;;;1.90;87.22;96241.53;5091097;28;20382;-68
2021/11/25 01:02:26;;;;;;;17.73;11.75;;;;;;;1.97;87.01;96248.38;5090928;28;20421;-68
2021/11/25 01:04:51;;;;;;;16.83;11.70;;;;;;;1.84;88.24;96242.31;5090907;28;20394;-68
2021/11/25 01:07:17;;;;;;;16.45;11.20;;;;;;;2.08;86.70;96234.16;5091126;28;20414;-68
2021/11/25 01:09:42;;;;;;;16.47;11.67;;;;;;;1.86;86.42;96228.22;5091451;28;20382;-68
2021/11/25 01:12:09;;;;;;;15.97;11.30;;;;;;;2.05;87.10;96237.94;5091688;28;20439;-69
2021/11/25 01:14:36;;;;;;;17.65;12.23;;;;;;;1.98;86.77;96234.47;5072942;28;20389;-69
2021/11/25 01:17:02;;;;;;;17.70;11.95;;;;;;;1.93;87.12;96236.81;5090049;28;20405;-68
2021/11/25 01:19:28;;;;;;;17.45;12.27;;;;;;;1.90;86.94;96237.19;5073009;28;20477;-68
2021/11/25 01:21:53;;;;;;;18.23;12.73;;;;;;;2.09;86.28;96231.41;5090809;28;20473;-68
2021/11/25 01:24:19;;;;;;;18.23;12.50;;;;;;;1.96;87.41;96228.69;5090738;28;20412;-68
2021/11/25 01:26:45;;;;;;;16.83;11.77;;;;;;;1.94;86.48;96227.28;5072267;28;20410;-68
2021/11/25 01:29:11;;;;;;;19.00;12.73;;;;;;;1.91;87.30;96225.88;5091175;28;20394;-69
2021/11/25 01:31:41;;;;;;;17.83;12.57;;;;;;;1.96;87.47;96220.94;5090816;28;20422;-68
2021/11/25 01:34:07;;;;;;;16.45;11.52;;;;;;;2.19;85.63;96218.13;5090255;28;20704;-68
2021/11/25 01:36:33;;;;;;;16.83;12.37;;;;;;;2.10;86.11;96216.69;5090970;28;20397;-68
2021/11/25 01:38:58;;;;;;;17.48;12.10;;;;;;;2.09;87.06;96220.25;5090369;28;20461;-68
2021/11/25 01:41:24;;;;;;;18.65;12.55;;;;;;;2.27;85.67;96210.25;5091481;28;20413;-68
2021/11/25 01:43:50;;;;;;;17.67;12.02;;;;;;;2.05;86.95;96206.91;5094073;28;20386;-69
2021/11/25 01:46:17;;;;;;;17.17;11.40;;;;;;;2.13;86.93;96205.97;5094896;28;20394;-68
2021/11/25 01:48:47;;;;;;;19.55;13.02;;;;;;;2.24;85.56;96209.81;5094110;28;20382;-69
2021/11/25 01:51:12;;;;;;;18.98;12.73;;;;;;;2.13;85.97;96203.38;5086634;28;20405;-68
2021/11/25 01:53:38;;;;;;;20.90;13.20;;;;;;;2.04;86.66;96205.31;5094456;28;20468;-68
2021/11/25 01:56:05;;;;;;;18.98;12.75;;;;;;;1.96;87.27;96195.09;5094267;28;20397;-68
2021/11/25 01:58:31;;;;;;;16.40;11.68;;;;;;;1.96;87.52;96192.50;5094279;28;20386;-68
2021/11/25 02:01:02;;;;;;;16.85;11.90;;;;;;;1.97;87.74;96198.47;5093750;28;20402;-68
2021/11/25 02:03:28;;;;;;;17.63;12.30;;;;;;;2.12;86.83;96191.44;5093313;28;20463;-68
2021/11/25 02:05:55;;;;;;;18.83;12.77;;;;;;;2.07;86.68;96188.63;5075455;28;20857;-68
2021/11/25 02:08:20;;;;;;;17.98;12.40;;;;;;;1.92;87.19;96185.34;5093808;28;20409;-68
2021/11/25 02:10:50;;;;;;;20.40;13.10;;;;;;;2.06;86.65;96187.03;5093831;28;20895;-68
2021/11/25 02:13:15;;;;;;;18.80;12.95;;;;;;;2.11;85.76;96189.06;5064271;28;20386;-69
2021/11/25 02:15:41;;;;;;;18.52;12.80;;;;;;;1.86;86.54;96183.50;5093957;28;20402;-68
2021/11/25 02:18:12;;;;;;;18.27;12.53;;;;;;;2.04;86.44;96171.72;5093986;28;20509;-68
2021/11/25 02:20:39;;;;;;;19.25;13.50;;;;;;;2.24;85.26;96169.25;5075829;28;20799;-68
2021/11/25 02:23:07;;;;;;;19.27;13.00;;;;;;;2.24;85.24;96163.28;5093567;28;20493;-68
2021/11/25 02:25:32;;;;;;;18.27;12.65;;;;;;;2.32;84.93;96161.34;5076097;28;20485;-68
2021/11/25 02:27:58;;;;;;;19.15;13.25;;;;;;;2.17;85.47;96160.69;5093437;28;20492;-69
2021/11/25 02:30:24;;;;;;;19.08;12.70;;;;;;;2.23;85.61;96154.72;5093370;28;20743;-68
2021/11/25 02:32:50;;;;;;;20.45;13.07;;;;;;;2.20;85.66;96156.91;5093802;28;20397;-68
2021/11/25 02:35:22;;;;;;;17.17;12.40;;;;;;;2.01;86.65;96156.56;5093427;28;20406;-67
2021/11/25 02:37:50;;;;;;;17.42;12.55;;;;;;;2.00;86.64;96156.78;5093593;28;20429;-69
2021/11/25 02:40:27;;;;;;;17.90;12.80;;;;;;;1.88;87.59;96158.28;5091876;28;20402;-68
2021/11/25 02:43:02;;;;;;;17.30;12.43;;;;;;;2.14;86.17;96162.81;5089513;28;20420;-68
2021/11/25 02:45:29;;;;;;;19.92;13.18;;;;;;;2.35;85.11;96163.53;5071234;28;20401;-68
2021/11/25 02:47:55;;;;;;;19.75;13.57;;;;;;;2.07;84.97;96155.81;5092686;28;20463;-68
2021/11/25 02:50:26;;;;;;;20.60;12.95;;;;;;;1.92;86.12;96152.53;5093107;28;20389;-68
2021/11/25 02:52:52;;;;;;;19.95;12.90;;;;;;;1.95;86.54;96148.81;5092908;28;20928;-68
2021/11/25 02:55:19;;;;;;;17.93;12.10;;;;;;;1.98;86.87;96146.63;5093332;28;20483;-68
2021/11/25 02:57:45;;;;;;;18.53;13.40;;;;;;;2.01;86.68;96140.25;5093110;28;20509;-68
2021/11/25 03:00:15;;;;;;;20.50;13.30;;;;;;;2.26;85.06;96141.44;5093402;28;20386;-68
2021/11/25 03:02:41;;;;;;;19.77;12.77;;;;;;;2.19;85.43;96150.13;5075167;28;20389;-68
2021/11/25 03:05:09;;;;;;;20.13;13.17;;;;;;;2.13;85.76;96140.53;5091545;28;20763;-68
2021/11/25 03:07:34;;;;;;;19.03;12.97;;;;;;;1.93;86.50;96133.47;5075069;28;20508;-68
2021/11/25 03:10:00;;;;;;;19.07;13.20;;;;;;;2.00;86.48;96123.19;5093255;28;20463;-68
2021/11/25 03:12:25;;;;;;;18.60;13.57;;;;;;;2.17;86.11;96128.84;5093124;28;20863;-68
2021/11/25 03:14:50;;;;;;;19.60;13.17;;;;;;;2.24;85.30;96127.88;5092561;28;20390;-68
2021/11/25 03:17:16;;;;;;;20.73;13.37;;;;;;;2.54;84.01;96133.63;5093230;28;20760;-67
2021/11/25 03:19:41;;;;;;;18.92;13.20;;;;;;;2.25;85.64;96126.91;5093036;28;20393;-68
2021/11/25 03:22:07;;;;;;;20.13;13.77;;;;;;;2.28;85.39;96120.56;5098547;28;20850;-68
2021/11/25 03:24:32;;;;;;;18.17;13.40;;;;;;;2.08;86.38;96118.66;5095859;28;20452;-68
2021/11/25 03:26:57;;;;;;;19.10;13.30;;;;;;;1.95;86.96;96126.31;5092271;28;20485;-68
2021/11/25 03:29:23;;;;;;;20.47;14.03;;;;;;;2.17;86.10;96121.09;5091788;28;20417;-68
2021/11/25 03:31:48;;;;;;;20.93;13.87;;;;;;;2.04;86.18;96120.03;5092432;28;20394;-68
2021/11/25 03:34:14;;;;;;;19.43;13.33;;;;;;;2.16;85.96;96117.72;5091789;28;20831;-68
2021/11/25 03:36:39;;;;;;;19.80;13.63;;;;;;;2.20;85.92;96113.75;5092724;28;20426;-67
2021/11/25 03:39:04;;;;;;;20.13;13.18;;;;;;;2.26;85.02;96113.00;5073593;28;20404;-69
2021/11/25 03:41:30;;;;;;;20.27;13.67;;;;;;;2.23;85.79;96112.59;5091434;28;20797;-68
2021/11/25 03:43:58;;;;;;;19.70;13.77;;;;;;;2.05;86.13;96108.72;5092423;28;20386;-68
2021/11/25 03:46:23;;;;;;;19.38;13.65;;;;;;;2.11;86.62;96106.34;5092900;28;20435;-68
2021/11/25 03:48:49;;;;;;;19.35;13.15;;;;;;;2.08;85.99;96110.09;5073949;28;20401;-67
2021/11/25 03:51:14;;;;;;;18.80;13.43;;;;;;;2.04;85.90;96107.09;5074206;28;20408;-68
2021/11/25 03:53:43;;;;;;;20.37;13.23;;;;;;;1.83;87.16;96107.19;5073794;28;20486;-68
2021/11/25 03:56:08;;;;;;;19.23;13.52;;;;;;;2.14;86.27;96101.59;5074194;28;20394;-69
2021/11/25 03:58:33;;;;;;;19.37;13.87;;;;;;;2.22;85.28;96104.03;5092157;28;20754;-68
2021/11/25 04:00:59;;;;;;;21.73;13.83;;;;;;;1.96;86.58;96109.81;5092021;28;20386;-68
2021/11/25 04:03:25;;;;;;;19.35;13.40;;;;;;;2.22;85.32;96111.00;5091701;28;20877;-68
2021/11/25 04:05:51;;;;;;;18.90;13.15;;;;;;;2.02;86.32;96113.44;5092006;28;20417;-68
2021/11/25 04:08:16;;;;;;;19.40;13.82;;;;;;;2.29;85.32;96106.63;5092274;28;20913;-68
2021/11/25 04:10:43;;;;;;;18.73;13.07;;;;;;;1.98;86.48;96112.22;5091941;28;20432;-68
2021/11/25 04:13:09;;;;;;;20.63;13.57;;;;;;;2.06;86.61;96107.69;5091789;28;20792;-68
2021/11/25 04:15:34;;;;;;;20.90;13.55;;;;;;;2.18;86.05;96096.81;5091920;28;20386;-68
2021/11/25 04:18:00;;;;;;;19.30;13.37;;;;;;;1.85;87.11;96101.81;5092117;28;20397;-68
2021/11/25 04:20:26;;;;;;;20.60;13.67;;;;;;;2.08;86.58;96092.00;5091040;28;20533;-68
2021/11/25 04:22:51;;;;;;;19.43;13.07;;;;;;;1.91;87.25;96095.88;5092044;28;20401;-69
2021/11/25 04:25:17;;;;;;;21.50;14.30;;;;;;;2.24;85.68;96096.06;5073913;28;20724;-68
2021/11/25 04:27:45;;;;;;;20.43;13.83;;;;;;;1.99;86.02;96095.75;5091781;28;20475;-68
2021/11/25 04:30:25;;;;;;;20.73;13.85;;;;;;;2.07;86.57;96098.16;5091350;28;20859;-69
2021/11/25 04:35:35;;;;;;;20.23;13.97;;;;;;;1.76;87.12;96096.00;5091017;28;20397;-68
2021/11/25 04:38:12;;;;;;;20.52;14.05;;;;;;;1.91;87.48;96091.50;5091608;28;20539;-68
2021/11/25 04:40:47;;;;;;;19.73;13.65;;;;;;;2.04;86.23;96089.03;5091019;28;20470;-67
2021/11/25 04:43:14;;;;;;;20.10;14.18;;;;;;;2.07;86.51;96074.91;5091884;28;20547;-68
2021/11/25 04:45:42;;;;;;;21.15;13.65;;;;;;;2.09;86.87;96083.28;5090912;28;20763;-68
2021/11/25 04:48:08;;;;;;;18.65;13.13;;;;;;;1.85;86.60;96089.69;5091511;28;20409;-68
2021/11/25 04:50:34;;;;;;;19.52;13.20;;;;;;;1.39;90.24;96089.38;5091640;28;20761;-68
2021/11/25 04:53:00;;;;;;;18.58;13.02;;;;;;;1.76;89.24;96088.25;5091700;28;20394;-68
2021/11/25 04:55:25;;;;;;;20.10;13.88;;;;;;;1.73;88.59;96080.84;5090887;28;20393;-68
2021/11/25 04:57:51;;;;;;;19.63;13.00;;;;;;;1.57;89.78;96076.78;5091465;28;20386;-68
2021/11/25 05:00:17;;;;;;;22.90;13.63;;;;;;;1.71;89.03;96082.03;5090813;28;20460;-68
2021/11/25 05:02:43;;;;;;;21.90;13.77;;;;;;;1.71;89.10;96085.44;5073238;28;20482;-68
2021/11/25 05:05:09;;;;;;;20.00;14.57;;;;;;;1.86;88.49;96080.94;5091037;28;20882;-68
2021/11/25 05:07:34;;;;;;;21.00;13.80;;;;;;;1.96;87.94;96083.19;5090508;28;20406;-68
2021/11/25 05:10:00;;;;;;;21.60;14.57;;;;;;;2.09;87.32;96078.91;5091257;28;20773;-68
2021/11/25 05:12:26;;;;;;;19.85;13.65;;;;;;;1.97;87.40;96077.84;5090686;28;20419;-68
2021/11/25 05:14:51;;;;;;;19.60;13.70;;;;;;;1.97;87.88;96074.47;5078836;28;20380;-68
2021/11/25 05:17:17;;;;;;;21.33;13.73;;;;;;;1.99;87.69;96077.66;5084137;28;20390;-68
2021/11/25 05:19:42;;;;;;;21.23;13.80;;;;;;;1.96;87.70;96073.66;5076591;28;20401;-68
2021/11/25 05:22:08;;;;;;;23.47;14.27;;;;;;;1.68;88.46;96075.47;5103615;28;20394;-68
2021/11/25 05:24:33;;;;;;;20.88;13.90;;;;;;;1.93;88.07;96073.25;5095172;28;20390;-68
2021/11/25 05:26:58;;;;;;;20.10;13.63;;;;;;;1.93;88.29;96065.50;5095530;28;20408;-68
2021/11/25 05:29:24;;;;;;;20.63;13.20;;;;;;;2.05;87.21;96071.72;5094740;28;20397;-68
2021/11/25 05:31:50;;;;;;;20.42;14.07;;;;;;;1.94;87.60;96072.25;5094737;28;20390;-69
2021/11/25 05:34:16;;;;;;;20.05;13.30;;;;;;;2.14;86.81;96077.53;5094386;28;20401;-68
2021/11/25 05:36:43;;;;;;;22.08;14.00;;;;;;;1.88;87.69;96076.41;5094943;28;20382;-68
2021/11/25 05:39:09;;;;;;;19.80;13.93;;;;;;;2.29;86.51;96073.81;5094396;28;20515;-68
2021/11/25 05:41:34;;;;;;;21.33;14.20;;;;;;;2.30;85.39;96075.41;5094257;28;20378;-68
2021/11/25 05:44:00;;;;;;;20.90;14.70;;;;;;;2.19;86.27;96075.16;5094479;28;20451;-68
2021/11/25 05:46:25;;;;;;;20.85;13.73;;;;;;;1.96;87.49;96083.19;5094916;28;20396;-68
2021/11/25 05:48:51;;;;;;;21.63;14.00;;;;;;;1.93;86.98;96084.38;5094481;28;20424;-68
2021/11/25 05:51:16;;;;;;;20.00;13.87;;;;;;;1.89;88.23;96088.34;5094895;28;20477;-68
2021/11/25 05:53:41;;;;;;;22.20;14.57;;;;;;;1.93;87.31;96081.78;5093971;28;20386;-68
2021/11/25 05:56:07;;;;;;;21.13;13.87;;;;;;;1.85;88.41;96086.31;5076283;28;20484;-68
2021/11/25 05:58:32;;;;;;;21.85;14.10;;;;;;;2.08;87.00;96081.66;5094405;28;20401;-69
2021/11/25 06:00:58;;;;;;;26.73;16.33;;;;;;;2.08;86.68;96085.06;5094012;28;20390;-67
2021/11/25 06:03:24;;;;;;;35.03;18.40;;;;;;;1.85;88.03;96083.72;5093820;28;20488;-68
2021/11/25 06:05:49;;;;;;;37.97;19.02;;;;;;;1.86;87.35;96082.75;5093686;28;20409;-68
2021/11/25 06:08:14;;;;;;;21.43;14.07;;;;;;;1.74;88.38;96081.66;5094029;28;20442;-67
2021/11/25 06:10:40;;;;;;;23.03;14.63;;;;;;;2.04;86.82;96078.69;5093895;28;20857;-67
2021/11/25 06:13:05;;;;;;;22.90;14.23;;;;;;;1.97;86.64;96080.41;5093671;28;20386;-67
2021/11/25 06:15:31;;;;;;;25.07;15.43;;;;;;;1.81;87.15;96087.69;5093547;28;20785;-67
2021/11/25 06:17:56;;;;;;;22.53;14.87;;;;;;;1.54;88.36;96087.50;5075875;28;20398;-67
2021/11/25 06:20:22;;;;;;;22.77;14.70;;;;;;;1.24;90.19;96089.44;5075014;28;20759;-67
2021/11/25 06:22:50;;;;;;;21.83;14.63;;;;;;;1.25;88.75;96092.81;5094223;28;20394;-67
2021/11/25 06:25:17;;;;;;;21.67;14.27;;;;;;;0.99;92.14;96085.63;5093768;28;20386;-67
2021/11/25 06:27:43;;;;;;;23.73;14.95;;;;;;;1.38;90.27;96087.78;5092897;28;20496;-67
2021/11/25 06:30:10;;;;;;;22.30;14.57;;;;;;;1.54;89.42;96090.06;5093193;28;20485;-68
2021/11/25 06:32:37;;;;;;;24.77;15.23;;;;;;;1.53;89.60;96100.59;5093772;28;20402;-67
2021/11/25 06:35:09;;;;;;;21.38;14.45;;;;;;;1.72;89.75;96091.41;5093754;28;20463;-67
2021/11/25 06:37:34;;;;;;;23.65;14.82;;;;;;;1.52;90.42;96097.19;5093620;28;20470;-68
2021/11/25 06:40:00;;;;;;;23.80;14.85;;;;;;;1.46;90.40;96094.56;5093054;28;20393;-67
2021/11/25 06:42:25;;;;;;;23.70;15.00;;;;;;;1.56;89.88;96087.31;5092651;28;20394;-68
2021/11/25 06:44:50;;;;;;;21.87;14.53;;;;;;;1.60;90.28;96084.16;5093334;28;20417;-68
2021/11/25 06:47:16;;;;;;;21.00;13.65;;;;;;;1.74;89.56;96081.66;5092883;28;20711;-68
2021/11/25 06:49:41;;;;;;;23.73;15.20;;;;;;;1.86;88.10;96091.28;5093564;28;20469;-69
2021/11/25 06:52:06;;;;;;;22.17;14.33;;;;;;;1.87;88.11;96092.88;5092667;28;20390;-69
2021/11/25 06:54:32;;;;;;;21.77;14.50;;;;;;;1.95;87.17;96092.72;5093266;28;20417;-68
2021/11/25 06:56:57;;;;;;;21.67;14.33;;;;;;;1.88;87.01;96089.31;5093140;28;20863;-69
2021/11/25 06:59:24;;;;;;;20.98;13.73;;;;;;;1.90;87.66;96086.53;5088527;28;20481;-68
2021/11/25 07:01:49;;;;;;;22.70;14.35;;;;;;;1.82;88.15;96087.50;5092026;28;20397;-68
2021/11/25 07:04:16;;;;;;;24.53;14.87;;;;;;;1.87;88.17;96087.72;5093014;28;20390;-69
2021/11/25 07:06:44;;;;;;;21.30;13.80;;;;;;;1.80;88.34;96097.22;5091938;28;20418;-69
2021/11/25 07:09:10;;;;;;;23.52;14.85;;;;;;;1.91;87.90;96098.47;5084238;28;20390;-70
2021/11/25 07:11:35;;;;;;;22.98;15.30;;;;;;;2.03;86.51;96094.38;5074246;28;20394;-68
2021/11/25 07:14:01;;;;;;;21.77;15.13;;;;;;;1.93;87.48;96089.56;5092309;28;20482;-68
2021/11/25 07:16:26;;;;;;;23.40;14.63;;;;;;;2.00;87.71;96092.97;5092450;28;20382;-68
2021/11/25 07:18:51;;;;;;;23.07;14.77;;;;;;;2.05;87.13;96100.97;5092344;28;20433;-68
2021/11/25 07:21:17;;;;;;;21.98;14.25;;;;;;;1.88;87.70;96106.59;5107390;28;20384;-69
2021/11/25 07:23:43;;;;;;;22.10;14.47;;;;;;;1.85;88.24;96109.56;5092803;28;20386;-69
2021/11/25 07:26:09;;;;;;;21.17;14.10;;;;;;;2.05;87.71;96111.28;5092612;28;20392;-69
2021/11/25 07:28:36;;;;;;;22.15;13.75;;;;;;;2.04;87.52;96116.66;5091933;28;20405;-69
2021/11/25 07:31:01;;;;;;;23.60;14.25;;;;;;;2.05;87.67;96107.91;5092541;28;20389;-69
2021/11/25 07:33:26;;;;;;;20.70;13.73;;;;;;;2.17;86.71;96115.94;5092178;28;20455;-69
2021/11/25 07:35:52;;;;;;;21.17;14.03;;;;;;;2.33;87.89;96121.59;5086718;28;20400;-69
2021/11/25 07:38:17;;;;;;;21.10;14.77;;;;;;;2.49;87.58;96126.44;5085349;28;20401;-69
2021/11/25 07:40:44;;;;;;;25.43;15.40;;;;;;;2.20;88.13;96121.50;5091126;28;20394;-69
2021/11/25 07:43:11;;;;;;;22.05;14.18;;;;;;;2.26;86.73;96113.00;5086834;28;20378;-69
2021/11/25 07:45:36;;;;;;;21.80;14.63;;;;;;;2.30;87.01;96105.63;5091684;28;20385;-69
2021/11/25 07:48:02;;;;;;;21.97;14.10;;;;;;;2.48;85.58;96103.34;5091767;28;20517;-69
2021/11/25 07:50:29;;;;;;;23.73;14.88;;;;;;;1.95;87.62;96102.28;5091068;28;20421;-66
2021/11/25 07:52:56;;;;;;;22.20;14.23;;;;;;;2.01;88.02;96106.66;5074140;28;20423;-69
2021/11/25 07:55:23;;;;;;;21.27;14.57;;;;;;;2.18;86.60;96100.22;5091496;28;20396;-70
2021/11/25 07:57:49;;;;;;;21.27;14.55;;;;;;;2.23;86.53;96100.44;5091586;28;20492;-70
2021/11/25 08:00:15;;;;;;;21.30;13.88;;;;;;;2.33;85.66;96097.53;5091661;28;20390;-69
2021/11/25 08:02:41;;;;;;;20.88;14.05;;;;;;;2.48;85.02;96100.75;5073711;28;20421;-71
2021/11/25 08:05:08;;;;;;;21.77;13.93;;;;;;;2.34;85.44;96105.06;5091761;28;20425;-69
2021/11/25 08:07:33;;;;;;;20.73;14.60;;;;;;;2.72;84.53;96104.63;5091908;28;20429;-71
2021/11/25 08:09:59;;;;;;;20.27;13.57;;;;;;;2.58;84.30;96097.81;5091530;28;20863;-69
2021/11/25 08:12:24;;;;;;;20.87;13.40;;;;;;;2.50;85.08;96093.63;5091538;28;20462;-70
2021/11/25 08:14:49;;;;;;;20.80;13.90;;;;;;;2.45;84.12;96096.75;5091388;28;20397;-69
2021/11/25 08:17:15;;;;;;;20.47;13.70;;;;;;;2.70;84.80;96091.88;5091995;28;20390;-68
2021/11/25 08:19:42;;;;;;;20.65;13.80;;;;;;;2.70;83.11;96084.13;5073102;28;20390;-69
2021/11/25 08:22:07;;;;;;;20.33;13.52;;;;;;;2.56;83.75;96082.50;5091763;28;20397;-69
2021/11/25 08:24:33;;;;;;;21.97;13.60;;;;;;;2.61;83.92;96089.69;5091435;28;20382;-69
2021/11/25 08:26:58;;;;;;;21.10;13.70;;;;;;;2.67;84.11;96088.91;5091487;28;20431;-70
2021/11/25 08:29:24;;;;;;;21.77;14.33;;;;;;;2.80;82.73;96081.16;5091637;28;20855;-69
2021/11/25 08:31:49;;;;;;;19.95;13.65;;;;;;;2.80;82.90;96070.81;5091375;28;20863;-70
2021/11/25 08:34:15;;;;;;;20.10;13.10;;;;;;;2.75;82.67;96074.00;5091260;28;20936;-69
2021/11/25 08:36:41;;;;;;;20.27;13.27;;;;;;;2.64;83.19;96073.75;5091220;28;20382;-70
2021/11/25 08:39:06;;;;;;;19.40;13.73;;;;;;;2.55;83.26;96073.16;5090115;28;20531;-70
2021/11/25 08:41:32;;;;;;;20.45;14.18;;;;;;;2.61;83.58;96084.50;5091109;28;20484;-70
2021/11/25 08:43:57;;;;;;;20.73;13.87;;;;;;;2.78;83.02;96083.97;5091156;28;20473;-69
2021/11/25 08:46:23;;;;;;;21.20;13.60;;;;;;;3.02;82.01;96092.97;5091204;28;20397;-70
2021/11/25 08:48:49;;;;;;;22.43;14.83;;;;;;;2.98;82.05;96088.38;5091452;28;20426;-70
2021/11/25 08:51:14;;;;;;;23.80;14.87;;;;;;;3.01;80.97;96085.41;5092468;28;20855;-70
2021/11/25 08:53:40;;;;;;;23.33;15.57;;;;;;;2.85;81.51;96083.97;5094669;28;20741;-69
2021/11/25 08:56:08;;;;;;;21.45;13.98;;;;;;;2.77;82.62;96081.56;5094513;28;20481;-70
2021/11/25 08:58:34;;;;;;;25.77;15.48;;;;;;;2.67;82.95;96081.94;5076549;28;20417;-69
2021/11/25 09:01:00;;;;;;;23.70;15.50;;;;;;;2.60;82.42;96078.53;5094010;28;21107;-69
2021/11/25 09:03:26;;;;;;;22.43;14.93;;;;;;;2.44;83.94;96074.50;5091900;28;20397;-70
2021/11/25 09:05:52;;;;;;;23.02;14.95;;;;;;;2.61;82.94;96079.31;5094954;28;20401;-70
2021/11/25 09:08:18;;;;;;;22.33;14.38;;;;;;;2.59;83.58;96078.72;5094425;28;20493;-70
2021/11/25 09:10:43;;;;;;;24.30;15.00;;;;;;;2.54;84.16;96081.88;5094357;28;20444;-69
2021/11/25 09:13:09;;;;;;;21.73;14.38;;;;;;;2.77;82.98;96081.56;5093437;28;20409;-70
2021/11/25 09:15:38;;;;;;;23.93;15.03;;;;;;;2.66;83.42;96079.53;5094233;28;20466;-70
2021/11/25 09:18:03;;;;;;;24.27;15.27;;;;;;;2.63;82.55;96078.13;5094245;28;20519;-69
2021/11/25 09:20:31;;;;;;;23.37;15.47;;;;;;;2.51;83.70;96082.25;5089273;28;20398;-69
2021/11/25 09:22:58;;;;;;;21.73;15.20;;;;;;;2.23;84.54;96084.16;5094620;28;20410;-69
2021/11/25 09:25:24;;;;;;;24.85;15.90;;;;;;;2.26;84.65;96083.75;5094168;28;20429;-69
2021/11/25 09:27:49;;;;;;;24.30;15.87;;;;;;;2.38;84.55;96083.03;5094421;28;20429;-69
2021/11/25 09:30:15;;;;;;;24.50;15.97;;;;;;;2.62;83.34;96086.88;5076317;28;20751;-70
2021/11/25 09:32:41;;;;;;;26.77;15.85;;;;;;;2.49;83.57;96089.44;5094011;28;20406;-69
2021/11/25 09:35:07;;;;;;;25.10;15.80;;;;;;;2.47;83.15;96092.19;5094297;28;20894;-70
2021/11/25 09:37:33;;;;;;;23.95;16.05;;;;;;;2.49;83.56;96085.06;5094236;28;20417;-69
2021/11/25 09:39:59;;;;;;;26.05;15.80;;;;;;;2.14;84.42;96083.50;5093958;28;20413;-69
2021/11/25 09:42:24;;;;;;;26.20;16.10;;;;;;;2.31;84.71;96089.16;5094243;28;20390;-70
2021/11/25 09:44:51;;;;;;;25.53;15.90;;;;;;;2.12;84.76;96084.69;5094256;28;20398;-69
2021/11/25 09:47:17;;;;;;;24.88;16.45;;;;;;;2.46;84.17;96100.16;5093472;28;20459;-70
2021/11/25 09:49:44;;;;;;;26.83;16.87;;;;;;;2.37;84.06;96098.72;5075804;28;20793;-69
2021/11/25 09:52:09;;;;;;;26.67;16.10;;;;;;;2.19;85.02;96091.47;5094032;28;20401;-70
2021/11/25 09:54:35;;;;;;;24.93;15.70;;;;;;;1.99;85.62;96088.00;5094097;28;20386;-69
2021/11/25 09:57:00;;;;;;;25.07;15.33;;;;;;;2.20;85.07;96100.81;5094148;28;20416;-69
2021/11/25 09:59:26;;;;;;;24.75;15.70;;;;;;;2.43;84.65;96100.53;5093607;28;20424;-69
2021/11/25 10:01:52;;;;;;;24.85;15.88;;;;;;;2.53;84.26;96095.81;5093303;28;20955;-70
2021/11/25 10:04:17;;;;;;;28.42;15.75;;;;;;;2.78;82.48;96096.91;5093601;28;20382;-69
2021/11/25 10:06:52;;;;;;;24.23;15.37;;;;;;;2.68;82.50;96096.44;5092918;28;20406;-68
2021/11/25 10:09:32;;;;;;;25.35;15.40;;;;;;;2.62;83.14;96099.03;5093571;28;20451;-68
2021/11/25 10:11:57;;;;;;;25.10;15.40;;;;;;;2.73;83.08;96101.06;5093062;28;20430;-69
2021/11/25 10:14:35;;;;;;;25.42;16.05;;;;;;;2.93;82.44;96092.34;5093779;28;20421;-69
2021/11/25 10:17:01;;;;;;;27.08;16.40;;;;;;;2.91;81.05;96086.56;5093299;28;20482;-69
2021/11/25 10:19:28;;;;;;;23.75;15.32;;;;;;;2.76;82.22;96098.06;5094843;28;20863;-68
2021/11/25 10:21:56;;;;;;;24.00;15.07;;;;;;;3.10;80.69;96090.19;5093588;28;20474;-68
2021/11/25 10:24:42;;;;;;;24.67;15.60;;;;;;;3.30;80.62;96078.06;5092817;28;20417;-68
2021/11/25 10:27:23;;;;;;;24.93;15.70;;;;;;;3.11;80.77;96080.66;5093289;28;20445;-69
2021/11/25 10:30:07;;;;;;;24.87;15.97;;;;;;;3.26;80.96;96089.03;5093627;28;20716;-68
2021/11/25 10:32:33;;;;;;;25.08;16.17;;;;;;;3.31;80.17;96089.22;5079644;28;20454;-69
2021/11/25 10:35:22;;;;;;;25.13;15.82;;;;;;;3.05;81.01;96084.00;5093169;28;20821;-69
2021/11/25 10:38:19;;;;;;;24.07;15.97;;;;;;;3.25;79.99;96080.44;5092868;28;20751;-69
2021/11/25 10:40:39;;;;;;;22.80;14.98;;;;;;;3.39;78.87;96062.34;5092368;28;20406;-69
2021/11/25 10:43:19;;;;;;;25.10;15.38;;;;;;;3.58;78.02;96064.91;5092698;28;20388;-71
2021/11/25 10:45:48;;;;;;;22.98;15.55;;;;;;;3.10;79.84;96060.91;5092673;28;20402;-70
2021/11/25 10:48:27;;;;;;;24.90;16.17;;;;;;;3.49;78.62;96060.16;5092516;28;20402;-71
2021/11/25 10:50:53;;;;;;;22.53;15.10;;;;;;;2.90;80.04;96069.44;5085913;28;20382;-69
2021/11/25 10:53:18;;;;;;;23.87;15.37;;;;;;;2.77;81.23;96066.03;5092269;28;21009;-70
2021/11/25 10:55:44;;;;;;;21.90;14.63;;;;;;;2.94;80.38;96059.50;5092283;28;20447;-70
2021/11/25 10:58:11;;;;;;;26.90;16.03;;;;;;;2.86;80.50;96062.28;5092848;28;20477;-69
2021/11/25 11:00:43;;;;;;;25.50;16.02;;;;;;;2.92;81.18;96058.91;5092395;28;20382;-70
2021/11/25 11:03:22;;;;;;;23.85;15.63;;;;;;;2.59;82.54;96065.78;5073826;28;20398;-70
2021/11/25 11:05:56;;;;;;;25.42;16.25;;;;;;;3.02;80.95;96063.69;5089388;28;20413;-69
2021/11/25 11:08:24;;;;;;;25.67;16.25;;;;;;;2.57;82.03;96065.97;5092359;28;20414;-70
2021/11/25 11:10:59;;;;;;;25.17;15.57;;;;;;;2.62;81.95;96058.41;5092262;28;20398;-69
2021/11/25 11:15:57;;;;;;;24.27;15.55;;;;;;;3.14;80.84;96055.16;5091766;28;20435;-70
2021/11/25 11:18:52;;;;;;;24.58;15.60;;;;;;;2.97;80.21;96060.91;5091812;28;20406;-70
2021/11/25 11:21:33;;;;;;;24.42;16.38;;;;;;;2.96;80.24;96052.31;5092610;28;20414;-70
2021/11/25 11:24:05;;;;;;;23.53;15.47;;;;;;;2.73;81.75;96049.31;5091728;28;20396;-70
2021/11/25 11:26:32;;;;;;;24.50;16.08;;;;;;;2.89;80.58;96046.38;5074298;28;20886;-70
2021/11/25 11:28:57;;;;;;;25.25;16.98;;;;;;;3.03;81.03;96042.00;5091713;28;20492;-70